createdAt,value
2022-09-15T00:00:36.181Z,15.91
2022-09-15T00:11:07.863Z,16.04
2022-09-15T00:21:14.131Z,16.10
2022-09-15T00:31:19.930Z,16.13
2022-09-15T00:41:23.658Z,16.12
2022-09-15T00:51:37.189Z,16.15
2022-09-15T01:01:41.972Z,16.14
2022-09-15T01:11:44.938Z,16.09
2022-09-15T01:21:55.641Z,15.99
2022-09-15T01:32:27.513Z,15.95
2022-09-15T01:42:32.364Z,15.89
2022-09-15T01:52:34.852Z,15.54
2022-09-15T02:02:46.676Z,15.31
2022-09-15T02:12:57.790Z,15.30
2022-09-15T02:23:08.585Z,15.25
2022-09-15T02:33:16.640Z,15.24
2022-09-15T02:43:19.432Z,15.29
2022-09-15T02:53:21.530Z,15.27
2022-09-15T03:03:23.945Z,15.14
2022-09-15T03:13:26.300Z,14.87
2022-09-15T03:23:28.890Z,14.47
2022-09-15T03:33:31.517Z,14.48
2022-09-15T03:43:34.991Z,14.55
2022-09-15T03:53:39.652Z,14.64
2022-09-15T04:03:46.315Z,14.59
2022-09-15T04:13:50.539Z,14.61
2022-09-15T04:23:53.583Z,14.59
2022-09-15T04:33:56.184Z,14.57
2022-09-15T04:43:58.696Z,14.57
2022-09-15T04:54:00.785Z,14.52
2022-09-15T05:04:04.204Z,14.48
2022-09-15T05:14:08.180Z,14.45
2022-09-15T05:24:10.305Z,14.53
2022-09-15T05:34:12.490Z,14.49
2022-09-15T05:44:14.677Z,14.62
2022-09-15T05:54:16.793Z,14.69
2022-09-15T06:04:18.861Z,14.75
2022-09-15T06:14:21.083Z,14.68
2022-09-15T06:24:23.193Z,14.80
2022-09-15T06:34:25.273Z,15.05
2022-09-15T06:44:27.813Z,15.07
2022-09-15T06:54:29.899Z,15.43
2022-09-15T07:04:32.081Z,15.73
2022-09-15T07:14:34.162Z,15.81
2022-09-15T07:24:36.208Z,15.74
2022-09-15T07:34:38.345Z,15.79
2022-09-15T07:44:40.451Z,16.20
2022-09-15T07:54:42.529Z,16.13
2022-09-15T08:04:44.705Z,16.15
2022-09-15T08:14:46.820Z,16.43
2022-09-15T08:24:49.376Z,16.89
2022-09-15T08:34:51.505Z,17.12
2022-09-15T08:45:00.562Z,16.87
2022-09-15T08:55:13.022Z,16.82
2022-09-15T09:05:30.451Z,16.91
2022-09-15T09:15:57.650Z,17.11
2022-09-15T09:26:02.267Z,17.12
2022-09-15T09:36:04.545Z,17.41
2022-09-15T09:46:16.629Z,17.69
2022-09-15T09:56:27.038Z,18.02
2022-09-15T10:06:31.078Z,18.19
2022-09-15T10:16:33.629Z,18.17
2022-09-15T10:26:36.263Z,18.28
2022-09-15T10:36:38.419Z,18.49
2022-09-15T10:46:46.520Z,18.47
2022-09-15T10:56:52.513Z,18.51
2022-09-15T11:07:31.041Z,18.40
2022-09-15T11:17:54.822Z,17.94
2022-09-15T11:28:25.353Z,17.45
2022-09-15T11:38:48.958Z,17.49
2022-09-15T11:49:17.373Z,17.59
2022-09-15T11:59:44.215Z,17.24
2022-09-15T12:09:48.313Z,16.95
2022-09-15T12:20:02.679Z,16.91
2022-09-15T12:30:06.314Z,16.81
2022-09-15T12:40:30.588Z,16.86
2022-09-15T12:50:43.501Z,16.88
2022-09-15T13:01:07.206Z,16.73
2022-09-15T13:11:19.651Z,16.46
2022-09-15T13:21:24.181Z,16.19
2022-09-15T13:31:39.026Z,15.91
2022-09-15T13:41:43.009Z,15.67
2022-09-15T13:51:55.468Z,15.60
2022-09-15T14:01:59.707Z,15.89
2022-09-15T14:12:15.134Z,16.21
2022-09-15T14:22:20.260Z,16.53
2022-09-15T14:32:22.451Z,16.59
2022-09-15T14:42:40.716Z,17.00
2022-09-15T14:52:44.857Z,16.97
2022-09-15T15:03:01.048Z,16.66
2022-09-15T15:13:16.350Z,16.68
2022-09-15T15:23:28.054Z,16.43
2022-09-15T15:33:30.291Z,16.39
2022-09-15T15:43:32.496Z,16.10
2022-09-15T15:53:35.070Z,15.89
2022-09-15T16:03:37.208Z,15.80
2022-09-15T16:13:39.954Z,15.48
2022-09-15T16:23:42.186Z,15.21
2022-09-15T16:33:44.447Z,14.98
2022-09-15T16:43:47.251Z,14.87
2022-09-15T16:53:51.233Z,14.59
2022-09-15T17:03:53.319Z,14.40
2022-09-15T17:13:55.513Z,14.30
2022-09-15T17:23:57.631Z,14.22
2022-09-15T17:34:01.034Z,14.08
2022-09-15T17:44:03.378Z,13.91
2022-09-15T17:54:07.512Z,13.88
2022-09-15T18:04:11.324Z,13.69
2022-09-15T18:14:13.479Z,13.58
2022-09-15T18:24:15.572Z,13.51
2022-09-15T18:34:17.718Z,13.35
2022-09-15T18:44:19.818Z,13.36
2022-09-15T18:54:21.992Z,13.30
2022-09-15T19:04:27.292Z,13.18
2022-09-15T19:14:32.074Z,12.95
2022-09-15T19:24:34.323Z,12.78
2022-09-15T19:34:38.635Z,12.52
2022-09-15T19:44:41.955Z,12.34
2022-09-15T19:54:44.434Z,12.27
2022-09-15T20:15:04.708Z,12.15
2022-09-15T20:25:07.082Z,12.15
2022-09-15T20:35:09.300Z,12.08
2022-09-15T20:45:11.669Z,11.99
2022-09-15T20:55:13.914Z,11.89
2022-09-15T21:05:16.095Z,11.94
2022-09-15T21:15:18.492Z,11.74
2022-09-15T21:25:21.209Z,11.90
2022-09-15T21:35:23.349Z,11.78
2022-09-15T21:45:25.534Z,11.66
2022-09-15T21:55:27.692Z,11.70
2022-09-15T22:10:05.168Z,11.95
2022-09-15T22:20:09.424Z,12.31
2022-09-15T22:30:12.440Z,12.59
2022-09-15T22:40:14.651Z,12.62
2022-09-15T22:50:16.877Z,12.69
2022-09-15T23:00:20.431Z,12.59
2022-09-15T23:10:22.623Z,12.44
2022-09-15T23:20:24.815Z,12.42
2022-09-15T23:30:26.899Z,12.49
2022-09-15T23:40:29.826Z,12.62
2022-09-15T23:50:32.701Z,12.78
